UUOO/VOZ METAR and TAF weather

Enter ICAO airport designator
Station Type Date Time Source
UUOO METAR 2021/08/04 18:30 UTC NOAA

UUOO 041830Z 00000MPS CAVOK 17/12 Q1017 R30/010070 NOSIG RMK QFE749


Station Type Date Time Source
UUOO Decoded METAR 2021/08/04 18:30 UTC NOAA

Voronez, Russia (UUOO) 51-39N 039-15E 104M
Aug 04, 2021 - 02:30 PM EDT / 2021.08.04 1830 UTC
Wind: Calm:0
Visibility: greater than 7 mile(s):0
Temperature: 62 F (17 C)
Dew Point: 53 F (12 C)
Relative Humidity: 72%
Pressure (altimeter): 30.03 in. Hg (1017 hPa)
ob: UUOO 041830Z 00000MPS CAVOK 17/12 Q1017 R30/010070 NOSIG RMK QFE749
cycle: 18

Station Type Date Time Source
UUOO TAF 2019/08/12 03:33 UTC NOAA

TAF COR TAF COR UUOO 120159 1203/1212 31003MPS CAVOK

Example: see airport list